createdAt,value
2022-12-26T00:02:31.912Z,1007.6
2022-12-26T00:12:31.759Z,1007.5
2022-12-26T00:17:31.689Z,1007.5
2022-12-26T00:27:31.600Z,1007.5
2022-12-26T00:32:31.550Z,1007.5
2022-12-26T00:37:31.458Z,1007.6
2022-12-26T00:42:31.408Z,1007.5
2022-12-26T00:47:31.379Z,1007.4
2022-12-26T00:52:31.347Z,1007.4
2022-12-26T00:57:31.254Z,1007.4
2022-12-26T01:02:31.331Z,1007.3
2022-12-26T01:12:31.171Z,1007.3
2022-12-26T01:17:31.246Z,1007.5
2022-12-26T01:22:31.043Z,1007.4
2022-12-26T01:27:30.973Z,1007.4
2022-12-26T01:32:30.952Z,1007.4
2022-12-26T01:37:30.863Z,1007.6
2022-12-26T01:42:30.866Z,1007.5
2022-12-26T01:47:30.796Z,1007.6
2022-12-26T01:52:30.715Z,1007.6
2022-12-26T01:57:30.658Z,1007.8
2022-12-26T02:02:30.714Z,1007.9
2022-12-26T02:07:32.546Z,1007.9
2022-12-26T02:12:34.275Z,1007.9
2022-12-26T02:17:30.397Z,1007.9
2022-12-26T02:27:30.292Z,1008.2
2022-12-26T02:32:30.218Z,1008.3
2022-12-26T02:37:32.705Z,1008.4
2022-12-26T02:42:30.132Z,1008.5
2022-12-26T02:47:29.965Z,1008.6
2022-12-26T02:52:29.904Z,1008.7
2022-12-26T02:57:29.875Z,1008.8
2022-12-26T03:02:30.000Z,1009.0
2022-12-26T03:07:29.810Z,1009.1
2022-12-26T03:17:29.646Z,1009.4
2022-12-26T03:22:29.570Z,1009.5
2022-12-26T03:27:29.519Z,1009.7
2022-12-26T03:32:29.447Z,1009.9
2022-12-26T03:37:48.251Z,1009.9
2022-12-26T03:42:29.320Z,1009.9
2022-12-26T03:47:29.215Z,1010.0
2022-12-26T03:52:29.158Z,1010.2
2022-12-26T03:57:29.069Z,1010.3
2022-12-26T04:02:29.086Z,1010.5
2022-12-26T04:07:28.886Z,1010.6
2022-12-26T04:12:28.745Z,1010.7
2022-12-26T04:32:28.203Z,1011.1
2022-12-26T04:37:30.272Z,1011.2
2022-12-26T04:42:28.005Z,1011.1
2022-12-26T04:47:28.080Z,1011.3
2022-12-26T04:52:27.796Z,1011.5
2022-12-26T04:57:27.836Z,1011.5
2022-12-26T05:02:27.738Z,1011.6
2022-12-26T05:12:27.306Z,1011.6
2022-12-26T05:17:27.339Z,1011.8
2022-12-26T05:22:27.075Z,1011.9
2022-12-26T05:27:27.132Z,1012.0
2022-12-26T05:32:26.756Z,1012.2
2022-12-26T05:37:26.820Z,1012.3
2022-12-26T05:42:26.495Z,1012.4
2022-12-26T05:47:26.589Z,1012.5
2022-12-26T05:52:26.232Z,1012.6
2022-12-26T05:57:26.426Z,1012.8
2022-12-26T06:02:26.075Z,1012.9
2022-12-26T06:07:26.055Z,1013.0
2022-12-26T06:12:25.751Z,1013.0
2022-12-26T06:17:25.816Z,1013.0
2022-12-26T06:22:25.468Z,1013.1
2022-12-26T06:27:25.448Z,1013.2
2022-12-26T06:32:25.126Z,1013.3
2022-12-26T06:37:25.135Z,1013.4
2022-12-26T06:42:24.775Z,1013.5
2022-12-26T06:47:24.797Z,1013.7
2022-12-26T06:52:24.469Z,1013.8
2022-12-26T06:57:24.476Z,1013.9
2022-12-26T07:02:24.349Z,1014.0
2022-12-26T07:07:24.165Z,1014.2
2022-12-26T07:12:23.820Z,1014.4
2022-12-26T07:17:23.800Z,1014.5
2022-12-26T07:22:23.429Z,1014.5
2022-12-26T07:27:23.402Z,1014.6
2022-12-26T07:32:23.021Z,1014.7
2022-12-26T07:37:23.135Z,1014.8
2022-12-26T07:42:22.733Z,1015.0
2022-12-26T07:47:25.057Z,1015.2
2022-12-26T07:52:22.370Z,1015.3
2022-12-26T07:57:46.898Z,1015.4
2022-12-26T08:02:22.193Z,1015.4
2022-12-26T08:07:21.705Z,1015.6
2022-12-26T08:12:21.472Z,1015.8
2022-12-26T08:17:21.348Z,1015.9
2022-12-26T08:22:21.132Z,1016.0
2022-12-26T08:27:23.444Z,1016.2
2022-12-26T08:32:20.703Z,1016.2
2022-12-26T08:37:20.489Z,1016.4
2022-12-26T08:42:20.346Z,1016.5
2022-12-26T08:47:20.035Z,1016.6
2022-12-26T08:52:19.808Z,1016.7
2022-12-26T08:57:19.580Z,1016.7
2022-12-26T09:02:23.540Z,1016.9
2022-12-26T09:07:19.158Z,1017.0
2022-12-26T09:12:18.930Z,1017.0
2022-12-26T09:17:18.787Z,1017.1
2022-12-26T09:22:18.552Z,1017.1
2022-12-26T09:27:18.348Z,1017.2
2022-12-26T09:32:22.191Z,1017.4
2022-12-26T09:37:17.998Z,1017.5
2022-12-26T09:42:17.877Z,1017.5
2022-12-26T09:47:17.629Z,1017.6
2022-12-26T09:52:17.411Z,1017.7
2022-12-26T09:57:17.287Z,1017.8
2022-12-26T10:02:17.168Z,1017.9
2022-12-26T10:07:16.857Z,1018.0
2022-12-26T10:12:16.640Z,1018.1
2022-12-26T10:17:16.455Z,1018.2
2022-12-26T10:22:16.359Z,1018.3
2022-12-26T10:27:18.093Z,1018.3
2022-12-26T10:32:21.678Z,1018.3
2022-12-26T10:37:15.751Z,1018.3
2022-12-26T10:42:15.566Z,1018.3
2022-12-26T10:47:16.656Z,1018.4
2022-12-26T10:52:15.338Z,1018.4
2022-12-26T11:02:15.133Z,1018.5
2022-12-26T11:07:14.849Z,1018.4
2022-12-26T11:12:14.747Z,1018.5
2022-12-26T11:17:14.607Z,1018.7
2022-12-26T11:22:14.524Z,1018.6
2022-12-26T11:27:14.319Z,1018.6
2022-12-26T11:32:14.231Z,1018.7
2022-12-26T11:37:14.113Z,1018.8
2022-12-26T11:42:13.997Z,1018.8
2022-12-26T11:47:13.960Z,1018.8
2022-12-26T11:52:13.806Z,1018.8
2022-12-26T11:57:13.719Z,1018.9
2022-12-26T12:12:13.415Z,1018.9
2022-12-26T12:17:13.265Z,1018.9
2022-12-26T12:27:13.280Z,1019.0
2022-12-26T12:32:12.901Z,1019.1
2022-12-26T12:37:12.812Z,1019.0
2022-12-26T12:47:12.551Z,1019.0
2022-12-26T12:52:12.460Z,1018.9
2022-12-26T12:57:12.477Z,1019.0
2022-12-26T13:02:20.312Z,1019.0
2022-12-26T13:12:12.161Z,1019.1
2022-12-26T13:17:12.090Z,1019.1
2022-12-26T13:22:12.367Z,1019.0
2022-12-26T13:27:16.076Z,1019.1
2022-12-26T13:32:11.902Z,1019.1
2022-12-26T13:37:14.371Z,1019.1
2022-12-26T13:42:11.717Z,1019.1
2022-12-26T13:47:11.660Z,1019.1
2022-12-26T13:52:11.576Z,1019.1
2022-12-26T13:57:11.476Z,1019.1
2022-12-26T14:02:17.617Z,1019.2
2022-12-26T14:07:11.390Z,1019.2
2022-12-26T14:12:15.234Z,1019.2
2022-12-26T14:17:13.178Z,1019.1
2022-12-26T14:22:11.055Z,1019.1
2022-12-26T14:27:10.967Z,1019.1
2022-12-26T14:32:11.762Z,1019.2
2022-12-26T14:37:10.778Z,1019.2
2022-12-26T14:47:15.055Z,1019.3
2022-12-26T14:52:10.485Z,1019.4
2022-12-26T14:57:10.310Z,1019.5
2022-12-26T15:02:10.321Z,1019.6
2022-12-26T15:07:18.460Z,1019.6
2022-12-26T15:12:10.158Z,1019.6
2022-12-26T15:17:09.890Z,1019.8
2022-12-26T15:22:09.758Z,1019.9
2022-12-26T15:27:09.616Z,1019.9
2022-12-26T15:32:09.659Z,1019.9
2022-12-26T15:37:09.451Z,1020.0
2022-12-26T15:47:09.212Z,1020.1
2022-12-26T15:52:09.126Z,1020.1
2022-12-26T15:57:09.013Z,1020.1
2022-12-26T16:02:09.032Z,1020.2
2022-12-26T16:07:08.772Z,1020.2
2022-12-26T16:12:08.673Z,1020.3
2022-12-26T16:17:08.572Z,1020.4
2022-12-26T16:22:08.471Z,1020.5
2022-12-26T16:27:08.340Z,1020.6
2022-12-26T16:32:08.237Z,1020.7
2022-12-26T16:37:08.034Z,1020.6
2022-12-26T16:42:07.909Z,1020.7
2022-12-26T16:47:07.885Z,1020.8
2022-12-26T16:52:07.661Z,1020.9
2022-12-26T16:57:07.674Z,1020.9
2022-12-26T17:02:07.554Z,1020.9
2022-12-26T17:07:07.225Z,1021.0
2022-12-26T17:12:07.130Z,1020.9
2022-12-26T17:17:06.985Z,1020.9
2022-12-26T17:22:06.893Z,1020.8
2022-12-26T17:27:06.746Z,1020.9
2022-12-26T17:32:06.709Z,1020.9
2022-12-26T17:37:19.027Z,1020.9
2022-12-26T17:42:06.317Z,1020.9
2022-12-26T17:47:06.132Z,1020.8
2022-12-26T17:52:05.979Z,1021.0
2022-12-26T17:57:05.793Z,1021.0
2022-12-26T17:57:19.888Z,1021.0
2022-12-26T18:02:05.733Z,1021.1
2022-12-26T18:07:05.525Z,1021.2
2022-12-26T18:12:05.326Z,1021.2
2022-12-26T18:17:05.148Z,1021.2
2022-12-26T18:22:04.865Z,1021.2
2022-12-26T18:27:04.674Z,1021.2
2022-12-26T18:32:04.604Z,1021.3
2022-12-26T18:37:04.333Z,1021.4
2022-12-26T18:42:04.093Z,1021.3
2022-12-26T18:47:05.860Z,1021.4
2022-12-26T18:52:05.726Z,1021.4
2022-12-26T18:57:03.527Z,1021.5
2022-12-26T19:02:03.349Z,1021.6
2022-12-26T19:07:03.043Z,1021.6
2022-12-26T19:12:05.336Z,1021.7
2022-12-26T19:17:02.660Z,1021.6
2022-12-26T19:22:02.501Z,1021.7
2022-12-26T19:27:02.226Z,1021.7
2022-12-26T19:32:02.129Z,1021.8
2022-12-26T19:37:01.857Z,1021.7
2022-12-26T19:42:01.600Z,1021.8
2022-12-26T19:47:11.500Z,1021.9
2022-12-26T19:52:01.191Z,1021.9
2022-12-26T19:57:00.970Z,1022.0
2022-12-26T20:02:00.989Z,1022.1
2022-12-26T20:07:00.674Z,1022.1
2022-12-26T20:12:02.567Z,1022.2
2022-12-26T20:17:05.518Z,1022.2
2022-12-26T20:22:00.378Z,1022.3
2022-12-26T20:27:00.052Z,1022.4
2022-12-26T20:31:59.885Z,1022.4
2022-12-26T20:36:59.724Z,1022.5
2022-12-26T20:41:59.578Z,1022.5
2022-12-26T20:46:59.370Z,1022.6
2022-12-26T20:51:59.162Z,1022.6
2022-12-26T20:56:58.862Z,1022.7
2022-12-26T21:01:58.771Z,1022.7
2022-12-26T21:06:58.391Z,1022.7
2022-12-26T21:11:58.584Z,1022.7
2022-12-26T21:26:57.604Z,1022.8
2022-12-26T21:31:57.445Z,1022.8
2022-12-26T21:36:57.270Z,1022.9
2022-12-26T21:41:57.222Z,1023.0
2022-12-26T21:46:56.949Z,1023.0
2022-12-26T21:51:56.817Z,1023.1
2022-12-26T21:56:56.588Z,1023.1
2022-12-26T22:01:56.634Z,1023.1
2022-12-26T22:06:56.233Z,1023.2
2022-12-26T22:11:58.046Z,1023.3
2022-12-26T22:16:55.814Z,1023.3
2022-12-26T22:21:55.760Z,1023.3
2022-12-26T22:27:05.741Z,1023.4
2022-12-26T22:31:58.430Z,1023.5
2022-12-26T22:36:55.124Z,1023.5
2022-12-26T22:42:02.020Z,1023.4
2022-12-26T22:46:54.765Z,1023.5
2022-12-26T22:51:54.576Z,1023.5
2022-12-26T23:01:54.298Z,1023.5
2022-12-26T23:06:53.984Z,1023.6
2022-12-26T23:11:53.827Z,1023.7
2022-12-26T23:16:53.605Z,1023.7
2022-12-26T23:21:53.773Z,1023.6
2022-12-26T23:26:53.190Z,1023.5
2022-12-26T23:31:52.968Z,1023.5
2022-12-26T23:36:52.772Z,1023.5
2022-12-26T23:41:52.629Z,1023.5
2022-12-26T23:46:52.481Z,1023.4
2022-12-26T23:51:52.220Z,1023.5
2022-12-26T23:56:51.986Z,1023.5
